Time;durP1;ratioP1;P1;durP2;ratioP2;P2;SDS_P1;SDS_P2;PMS_P1;PMS_P2;Temp;Humidity;BMP_temperature;BMP_pressure;BME280_temperature;BME280_humidity;BME280_pressure;Samples;Min_cycle;Max_cycle;Signal;HPM_P1;HPM_P2
2021/04/07 00:00:37;;;;;;;4.05;2.6;;;;;;;-0.68;72.24902;94511.47;;;;
2021/04/07 00:01:39;;;;;;;4.05;2.6;;;;;;;-0.68;72.24902;94511.47;;;;
2021/04/07 00:02:40;;;;;;;4.05;2.6;;;;;;;-0.68;72.24902;94511.47;;;;
2021/04/07 00:03:40;;;;;;;4.05;2.6;;;;;;;-0.68;72.24902;94511.47;;;;
2021/04/07 00:04:41;;;;;;;4.05;2.6;;;;;;;-0.68;72.24902;94511.47;;;;
2021/04/07 00:05:47;;;;;;;4.05;2.6;;;;;;;-0.68;72.24902;94511.47;;;;
2021/04/07 00:06:48;;;;;;;4.05;2.6;;;;;;;-0.68;72.24902;94511.47;;;;
2021/04/07 00:07:50;;;;;;;4.05;2.6;;;;;;;-0.68;72.24902;94511.47;;;;
2021/04/07 00:08:51;;;;;;;4.05;2.6;;;;;;;-0.68;72.24902;94511.47;;;;
2021/04/07 00:09:52;;;;;;;4.05;2.6;;;;;;;-0.68;72.24902;94511.47;;;;
2021/04/07 00:10:52;;;;;;;4.05;2.6;;;;;;;-0.68;72.24902;94511.47;;;;
2021/04/07 00:11:54;;;;;;;2.8;2.4;;;;;;;-0.74;72.10352;94521.51;;;;
2021/04/07 00:12:55;;;;;;;2.8;2.4;;;;;;;-0.74;72.10352;94521.51;;;;
2021/04/07 00:13:56;;;;;;;2.8;2.4;;;;;;;-0.74;72.10352;94521.51;;;;
2021/04/07 00:14:58;;;;;;;2.8;2.4;;;;;;;-0.74;72.10352;94521.51;;;;
2021/04/07 00:15:58;;;;;;;2.8;2.4;;;;;;;-0.74;72.10352;94521.51;;;;
2021/04/07 00:16:59;;;;;;;2.8;2.4;;;;;;;-0.74;72.10352;94521.51;;;;
2021/04/07 00:17:59;;;;;;;2.8;2.4;;;;;;;-0.74;72.10352;94521.51;;;;
2021/04/07 00:19:01;;;;;;;2.8;2.4;;;;;;;-0.74;72.10352;94521.51;;;;
2021/04/07 00:20:02;;;;;;;2.8;2.4;;;;;;;-0.74;72.10352;94521.51;;;;
2021/04/07 00:21:07;;;;;;;2.8;2.4;;;;;;;-0.74;72.10352;94521.51;;;;
2021/04/07 00:22:08;;;;;;;3.85;2.55;;;;;;;-0.67;72.04199;94515.78;;;;
2021/04/07 00:23:08;;;;;;;3.85;2.55;;;;;;;-0.67;72.04199;94515.78;;;;
2021/04/07 00:24:09;;;;;;;3.85;2.55;;;;;;;-0.67;72.04199;94515.78;;;;
2021/04/07 00:25:10;;;;;;;3.85;2.55;;;;;;;-0.67;72.04199;94515.78;;;;
2021/04/07 00:26:11;;;;;;;3.85;2.55;;;;;;;-0.67;72.04199;94515.78;;;;
2021/04/07 00:27:13;;;;;;;3.85;2.55;;;;;;;-0.67;72.04199;94515.78;;;;
2021/04/07 00:28:19;;;;;;;3.85;2.55;;;;;;;-0.67;72.04199;94515.78;;;;
2021/04/07 00:29:19;;;;;;;3.85;2.55;;;;;;;-0.67;72.04199;94515.78;;;;
2021/04/07 00:30:20;;;;;;;3.85;2.55;;;;;;;-0.67;72.04199;94515.78;;;;
2021/04/07 00:31:22;;;;;;;3.85;2.55;;;;;;;-0.67;72.04199;94515.78;;;;
2021/04/07 00:32:23;;;;;;;3.85;2.55;;;;;;;-0.67;72.04199;94515.78;;;;
2021/04/07 00:33:23;;;;;;;5.800001;3.2;;;;;;;-0.59;71.9082;94513;;;;
2021/04/07 00:34:24;;;;;;;5.800001;3.2;;;;;;;-0.59;71.9082;94513;;;;
2021/04/07 00:35:24;;;;;;;5.800001;3.2;;;;;;;-0.59;71.9082;94513;;;;
2021/04/07 00:36:25;;;;;;;5.800001;3.2;;;;;;;-0.59;71.9082;94513;;;;
2021/04/07 00:37:26;;;;;;;5.800001;3.2;;;;;;;-0.59;71.9082;94513;;;;
2021/04/07 00:38:26;;;;;;;5.800001;3.2;;;;;;;-0.59;71.9082;94513;;;;
2021/04/07 00:39:27;;;;;;;5.800001;3.2;;;;;;;-0.59;71.9082;94513;;;;
2021/04/07 00:40:27;;;;;;;5.800001;3.2;;;;;;;-0.59;71.9082;94513;;;;
2021/04/07 00:41:28;;;;;;;5.800001;3.2;;;;;;;-0.59;71.9082;94513;;;;
2021/04/07 00:42:29;;;;;;;5.800001;3.2;;;;;;;-0.59;71.9082;94513;;;;
2021/04/07 00:43:31;;;;;;;4.65;3.3;;;;;;;-0.56;72.00684;94517.11;;;;
2021/04/07 00:44:32;;;;;;;4.65;3.3;;;;;;;-0.56;72.00684;94517.11;;;;
2021/04/07 00:45:33;;;;;;;4.65;3.3;;;;;;;-0.56;72.00684;94517.11;;;;
2021/04/07 00:46:34;;;;;;;4.65;3.3;;;;;;;-0.56;72.00684;94517.11;;;;
2021/04/07 00:47:35;;;;;;;4.65;3.3;;;;;;;-0.56;72.00684;94517.11;;;;
2021/04/07 00:48:36;;;;;;;4.65;3.3;;;;;;;-0.56;72.00684;94517.11;;;;
2021/04/07 00:49:37;;;;;;;4.65;3.3;;;;;;;-0.56;72.00684;94517.11;;;;
2021/04/07 00:50:38;;;;;;;4.65;3.3;;;;;;;-0.56;72.00684;94517.11;;;;
2021/04/07 00:51:38;;;;;;;4.65;3.3;;;;;;;-0.56;72.00684;94517.11;;;;
2021/04/07 00:52:43;;;;;;;4.65;3.3;;;;;;;-0.56;72.00684;94517.11;;;;
2021/04/07 00:53:44;;;;;;;4.65;3.3;;;;;;;-0.56;72.00684;94517.11;;;;
2021/04/07 00:54:45;;;;;;;4.6;3.3;;;;;;;-0.48;71.96973;94519.64;;;;
2021/04/07 00:55:46;;;;;;;4.6;3.3;;;;;;;-0.48;71.96973;94519.64;;;;
2021/04/07 00:56:46;;;;;;;4.6;3.3;;;;;;;-0.48;71.96973;94519.64;;;;
2021/04/07 00:57:48;;;;;;;4.6;3.3;;;;;;;-0.48;71.96973;94519.64;;;;
2021/04/07 00:58:50;;;;;;;4.6;3.3;;;;;;;-0.48;71.96973;94519.64;;;;
2021/04/07 00:59:50;;;;;;;4.6;3.3;;;;;;;-0.48;71.96973;94519.64;;;;
2021/04/07 01:00:52;;;;;;;4.6;3.3;;;;;;;-0.48;71.96973;94519.64;;;;
2021/04/07 01:01:54;;;;;;;4.6;3.3;;;;;;;-0.48;71.96973;94519.64;;;;
2021/04/07 01:02:55;;;;;;;4.6;3.3;;;;;;;-0.48;71.96973;94519.64;;;;
2021/04/07 01:03:58;;;;;;;4.6;3.3;;;;;;;-0.48;71.96973;94519.64;;;;
2021/04/07 01:04:59;;;;;;;5.25;3.400001;;;;;;;-0.4;71.96094;94521.77;;;;
2021/04/07 01:06:01;;;;;;;5.25;3.400001;;;;;;;-0.4;71.96094;94521.77;;;;
2021/04/07 01:07:01;;;;;;;5.25;3.400001;;;;;;;-0.4;71.96094;94521.77;;;;
2021/04/07 01:08:02;;;;;;;5.25;3.400001;;;;;;;-0.4;71.96094;94521.77;;;;
2021/04/07 01:09:03;;;;;;;5.25;3.400001;;;;;;;-0.4;71.96094;94521.77;;;;
2021/04/07 01:10:04;;;;;;;5.25;3.400001;;;;;;;-0.4;71.96094;94521.77;;;;
2021/04/07 01:11:08;;;;;;;5.25;3.400001;;;;;;;-0.4;71.96094;94521.77;;;;
2021/04/07 01:12:08;;;;;;;5.25;3.400001;;;;;;;-0.4;71.96094;94521.77;;;;
2021/04/07 01:13:10;;;;;;;5.25;3.400001;;;;;;;-0.4;71.96094;94521.77;;;;
2021/04/07 01:14:11;;;;;;;5.25;3.400001;;;;;;;-0.4;71.96094;94521.77;;;;
2021/04/07 01:15:12;;;;;;;5.3;3.55;;;;;;;-0.55;71.95801;94525.29;;;;
2021/04/07 01:16:14;;;;;;;5.3;3.55;;;;;;;-0.55;71.95801;94525.29;;;;
2021/04/07 01:17:15;;;;;;;5.3;3.55;;;;;;;-0.55;71.95801;94525.29;;;;
2021/04/07 01:18:17;;;;;;;5.3;3.55;;;;;;;-0.55;71.95801;94525.29;;;;
2021/04/07 01:19:18;;;;;;;5.3;3.55;;;;;;;-0.55;71.95801;94525.29;;;;
2021/04/07 01:20:23;;;;;;;5.3;3.55;;;;;;;-0.55;71.95801;94525.29;;;;
2021/04/07 01:21:24;;;;;;;5.3;3.55;;;;;;;-0.55;71.95801;94525.29;;;;
2021/04/07 01:22:25;;;;;;;5.3;3.55;;;;;;;-0.55;71.95801;94525.29;;;;
2021/04/07 01:23:31;;;;;;;5.3;3.55;;;;;;;-0.55;71.95801;94525.29;;;;
2021/04/07 01:24:33;;;;;;;5.3;3.55;;;;;;;-0.55;71.95801;94525.29;;;;
2021/04/07 01:25:36;;;;;;;5.3;3.55;;;;;;;-0.55;71.95801;94525.29;;;;
2021/04/07 01:26:36;;;;;;;3.95;3.55;;;;;;;-0.68;72.31152;94531.34;;;;
2021/04/07 01:27:37;;;;;;;3.95;3.55;;;;;;;-0.68;72.31152;94531.34;;;;
2021/04/07 01:28:39;;;;;;;3.95;3.55;;;;;;;-0.68;72.31152;94531.34;;;;
2021/04/07 01:29:40;;;;;;;3.95;3.55;;;;;;;-0.68;72.31152;94531.34;;;;
2021/04/07 01:30:48;;;;;;;3.95;3.55;;;;;;;-0.68;72.31152;94531.34;;;;
2021/04/07 01:31:49;;;;;;;3.95;3.55;;;;;;;-0.68;72.31152;94531.34;;;;
2021/04/07 01:32:52;;;;;;;3.95;3.55;;;;;;;-0.68;72.31152;94531.34;;;;
2021/04/07 01:33:52;;;;;;;3.95;3.55;;;;;;;-0.68;72.31152;94531.34;;;;
2021/04/07 01:34:53;;;;;;;3.95;3.55;;;;;;;-0.68;72.31152;94531.34;;;;
2021/04/07 01:35:54;;;;;;;3.95;3.55;;;;;;;-0.68;72.31152;94531.34;;;;
2021/04/07 01:36:54;;;;;;;4.65;3.45;;;;;;;-0.75;72.4668;94530.86;;;;
2021/04/07 01:37:56;;;;;;;4.65;3.45;;;;;;;-0.75;72.4668;94530.86;;;;
2021/04/07 01:38:57;;;;;;;4.65;3.45;;;;;;;-0.75;72.4668;94530.86;;;;
2021/04/07 01:39:57;;;;;;;4.65;3.45;;;;;;;-0.75;72.4668;94530.86;;;;
2021/04/07 01:40:58;;;;;;;4.65;3.45;;;;;;;-0.75;72.4668;94530.86;;;;
2021/04/07 01:41:59;;;;;;;4.65;3.45;;;;;;;-0.75;72.4668;94530.86;;;;
2021/04/07 01:43:00;;;;;;;4.65;3.45;;;;;;;-0.75;72.4668;94530.86;;;;
2021/04/07 01:44:00;;;;;;;4.65;3.45;;;;;;;-0.75;72.4668;94530.86;;;;
2021/04/07 01:45:02;;;;;;;4.65;3.45;;;;;;;-0.75;72.4668;94530.86;;;;
2021/04/07 01:46:05;;;;;;;4.65;3.45;;;;;;;-0.75;72.4668;94530.86;;;;
2021/04/07 01:47:06;;;;;;;4.65;3.45;;;;;;;-0.75;72.4668;94530.86;;;;
2021/04/07 01:48:08;;;;;;;4.75;3.5;;;;;;;-0.78;72.50195;94522.88;;;;
2021/04/07 01:49:10;;;;;;;4.75;3.5;;;;;;;-0.78;72.50195;94522.88;;;;
2021/04/07 01:50:12;;;;;;;4.75;3.5;;;;;;;-0.78;72.50195;94522.88;;;;
2021/04/07 01:51:13;;;;;;;4.75;3.5;;;;;;;-0.78;72.50195;94522.88;;;;
2021/04/07 01:52:15;;;;;;;4.75;3.5;;;;;;;-0.78;72.50195;94522.88;;;;
2021/04/07 01:53:15;;;;;;;4.75;3.5;;;;;;;-0.78;72.50195;94522.88;;;;
2021/04/07 01:54:18;;;;;;;4.75;3.5;;;;;;;-0.78;72.50195;94522.88;;;;
2021/04/07 01:55:18;;;;;;;4.75;3.5;;;;;;;-0.78;72.50195;94522.88;;;;
2021/04/07 01:56:19;;;;;;;4.75;3.5;;;;;;;-0.78;72.50195;94522.88;;;;
2021/04/07 01:57:19;;;;;;;4.75;3.5;;;;;;;-0.78;72.50195;94522.88;;;;
2021/04/07 01:58:21;;;;;;;4.25;3.5;;;;;;;-0.78;72.6377;94527.34;;;;
2021/04/07 01:59:21;;;;;;;4.25;3.5;;;;;;;-0.78;72.6377;94527.34;;;;
2021/04/07 02:00:24;;;;;;;4.25;3.5;;;;;;;-0.78;72.6377;94527.34;;;;
2021/04/07 02:01:24;;;;;;;4.25;3.5;;;;;;;-0.78;72.6377;94527.34;;;;
2021/04/07 02:02:25;;;;;;;4.25;3.5;;;;;;;-0.78;72.6377;94527.34;;;;
2021/04/07 02:03:26;;;;;;;4.25;3.5;;;;;;;-0.78;72.6377;94527.34;;;;
2021/04/07 02:04:26;;;;;;;4.25;3.5;;;;;;;-0.78;72.6377;94527.34;;;;
2021/04/07 02:05:27;;;;;;;4.25;3.5;;;;;;;-0.78;72.6377;94527.34;;;;
2021/04/07 02:06:28;;;;;;;4.25;3.5;;;;;;;-0.78;72.6377;94527.34;;;;
2021/04/07 02:07:29;;;;;;;4.25;3.5;;;;;;;-0.78;72.6377;94527.34;;;;
2021/04/07 02:08:29;;;;;;;4.25;3.5;;;;;;;-0.78;72.6377;94527.34;;;;
2021/04/07 02:09:30;;;;;;;4;3.5;;;;;;;-0.71;72.48242;94528.25;;;;
2021/04/07 02:10:30;;;;;;;4;3.5;;;;;;;-0.71;72.48242;94528.25;;;;
2021/04/07 02:11:31;;;;;;;4;3.5;;;;;;;-0.71;72.48242;94528.25;;;;
2021/04/07 02:12:31;;;;;;;4;3.5;;;;;;;-0.71;72.48242;94528.25;;;;
2021/04/07 02:13:32;;;;;;;4;3.5;;;;;;;-0.71;72.48242;94528.25;;;;
2021/04/07 02:14:32;;;;;;;4;3.5;;;;;;;-0.71;72.48242;94528.25;;;;
2021/04/07 02:15:33;;;;;;;4;3.5;;;;;;;-0.71;72.48242;94528.25;;;;
2021/04/07 02:16:34;;;;;;;4;3.5;;;;;;;-0.71;72.48242;94528.25;;;;
2021/04/07 02:17:34;;;;;;;4;3.5;;;;;;;-0.71;72.48242;94528.25;;;;
2021/04/07 02:18:35;;;;;;;4;3.5;;;;;;;-0.71;72.48242;94528.25;;;;
2021/04/07 02:19:35;;;;;;;5.600001;3.6;;;;;;;-0.77;72.46191;94530.72;;;;
2021/04/07 02:20:36;;;;;;;5.600001;3.6;;;;;;;-0.77;72.46191;94530.72;;;;
2021/04/07 02:21:37;;;;;;;5.600001;3.6;;;;;;;-0.77;72.46191;94530.72;;;;
2021/04/07 02:22:37;;;;;;;5.600001;3.6;;;;;;;-0.77;72.46191;94530.72;;;;
2021/04/07 02:23:39;;;;;;;5.600001;3.6;;;;;;;-0.77;72.46191;94530.72;;;;
2021/04/07 02:24:39;;;;;;;5.600001;3.6;;;;;;;-0.77;72.46191;94530.72;;;;
2021/04/07 02:25:42;;;;;;;5.600001;3.6;;;;;;;-0.77;72.46191;94530.72;;;;
2021/04/07 02:26:42;;;;;;;5.600001;3.6;;;;;;;-0.77;72.46191;94530.72;;;;
2021/04/07 02:27:43;;;;;;;5.600001;3.6;;;;;;;-0.77;72.46191;94530.72;;;;
2021/04/07 02:28:43;;;;;;;5.600001;3.6;;;;;;;-0.77;72.46191;94530.72;;;;
2021/04/07 02:29:44;;;;;;;5.600001;3.6;;;;;;;-0.77;72.46191;94530.72;;;;
2021/04/07 02:30:47;;;;;;;5.950001;3.85;;;;;;;-0.9;72.45117;94532.7;;;;
2021/04/07 02:31:47;;;;;;;5.950001;3.85;;;;;;;-0.9;72.45117;94532.7;;;;
2021/04/07 02:32:48;;;;;;;5.950001;3.85;;;;;;;-0.9;72.45117;94532.7;;;;
2021/04/07 02:33:49;;;;;;;5.950001;3.85;;;;;;;-0.9;72.45117;94532.7;;;;
2021/04/07 02:34:49;;;;;;;5.950001;3.85;;;;;;;-0.9;72.45117;94532.7;;;;
2021/04/07 02:35:50;;;;;;;5.950001;3.85;;;;;;;-0.9;72.45117;94532.7;;;;
2021/04/07 02:36:51;;;;;;;5.950001;3.85;;;;;;;-0.9;72.45117;94532.7;;;;
2021/04/07 02:37:51;;;;;;;5.950001;3.85;;;;;;;-0.9;72.45117;94532.7;;;;
2021/04/07 02:38:52;;;;;;;5.950001;3.85;;;;;;;-0.9;72.45117;94532.7;;;;
2021/04/07 02:39:52;;;;;;;5.950001;3.85;;;;;;;-0.9;72.45117;94532.7;;;;
2021/04/07 02:40:53;;;;;;;4.35;3.85;;;;;;;-0.92;72.76074;94538.69;;;;
2021/04/07 02:41:54;;;;;;;4.35;3.85;;;;;;;-0.92;72.76074;94538.69;;;;
2021/04/07 02:42:54;;;;;;;4.35;3.85;;;;;;;-0.92;72.76074;94538.69;;;;
2021/04/07 02:43:55;;;;;;;4.35;3.85;;;;;;;-0.92;72.76074;94538.69;;;;
2021/04/07 02:44:55;;;;;;;4.35;3.85;;;;;;;-0.92;72.76074;94538.69;;;;
2021/04/07 02:45:58;;;;;;;4.35;3.85;;;;;;;-0.92;72.76074;94538.69;;;;
2021/04/07 02:46:59;;;;;;;4.35;3.85;;;;;;;-0.92;72.76074;94538.69;;;;
2021/04/07 02:47:59;;;;;;;4.35;3.85;;;;;;;-0.92;72.76074;94538.69;;;;
2021/04/07 02:49:00;;;;;;;4.35;3.85;;;;;;;-0.92;72.76074;94538.69;;;;
2021/04/07 02:50:01;;;;;;;4.35;3.85;;;;;;;-0.92;72.76074;94538.69;;;;
2021/04/07 02:51:01;;;;;;;4.35;3.85;;;;;;;-0.92;72.76074;94538.69;;;;
2021/04/07 02:52:02;;;;;;;5.95;3.85;;;;;;;-0.98;73.04102;94543.42;;;;
2021/04/07 02:53:03;;;;;;;5.95;3.85;;;;;;;-0.98;73.04102;94543.42;;;;
2021/04/07 02:54:04;;;;;;;5.95;3.85;;;;;;;-0.98;73.04102;94543.42;;;;
2021/04/07 02:55:05;;;;;;;5.95;3.85;;;;;;;-0.98;73.04102;94543.42;;;;
2021/04/07 02:56:06;;;;;;;5.95;3.85;;;;;;;-0.98;73.04102;94543.42;;;;
2021/04/07 02:57:07;;;;;;;5.95;3.85;;;;;;;-0.98;73.04102;94543.42;;;;
2021/04/07 02:58:07;;;;;;;5.95;3.85;;;;;;;-0.98;73.04102;94543.42;;;;
2021/04/07 02:59:08;;;;;;;5.95;3.85;;;;;;;-0.98;73.04102;94543.42;;;;
2021/04/07 03:00:08;;;;;;;5.95;3.85;;;;;;;-0.98;73.04102;94543.42;;;;
2021/04/07 03:01:10;;;;;;;5.95;3.85;;;;;;;-0.98;73.04102;94543.42;;;;
2021/04/07 03:02:10;;;;;;;5.15;3.7;;;;;;;-0.98;72.97949;94546.06;;;;
2021/04/07 03:03:11;;;;;;;5.15;3.7;;;;;;;-0.98;72.97949;94546.06;;;;
2021/04/07 03:04:13;;;;;;;5.15;3.7;;;;;;;-0.98;72.97949;94546.06;;;;
2021/04/07 03:05:14;;;;;;;5.15;3.7;;;;;;;-0.98;72.97949;94546.06;;;;
2021/04/07 03:06:14;;;;;;;5.15;3.7;;;;;;;-0.98;72.97949;94546.06;;;;
2021/04/07 03:07:15;;;;;;;5.15;3.7;;;;;;;-0.98;72.97949;94546.06;;;;
2021/04/07 03:08:15;;;;;;;5.15;3.7;;;;;;;-0.98;72.97949;94546.06;;;;
2021/04/07 03:09:16;;;;;;;5.15;3.7;;;;;;;-0.98;72.97949;94546.06;;;;
2021/04/07 03:10:16;;;;;;;5.15;3.7;;;;;;;-0.98;72.97949;94546.06;;;;
2021/04/07 03:11:17;;;;;;;5.15;3.7;;;;;;;-0.98;72.97949;94546.06;;;;
2021/04/07 03:12:17;;;;;;;5.15;3.7;;;;;;;-0.98;72.97949;94546.06;;;;
2021/04/07 03:13:18;;;;;;;4.9;3.35;;;;;;;-0.9;72.89844;94555.33;;;;
2021/04/07 03:14:19;;;;;;;4.9;3.35;;;;;;;-0.9;72.89844;94555.33;;;;
2021/04/07 03:15:19;;;;;;;4.9;3.35;;;;;;;-0.9;72.89844;94555.33;;;;
2021/04/07 03:16:20;;;;;;;4.9;3.35;;;;;;;-0.9;72.89844;94555.33;;;;
2021/04/07 03:17:20;;;;;;;4.9;3.35;;;;;;;-0.9;72.89844;94555.33;;;;
2021/04/07 03:18:21;;;;;;;4.9;3.35;;;;;;;-0.9;72.89844;94555.33;;;;
2021/04/07 03:19:21;;;;;;;4.9;3.35;;;;;;;-0.9;72.89844;94555.33;;;;
2021/04/07 03:20:22;;;;;;;4.9;3.35;;;;;;;-0.9;72.89844;94555.33;;;;
2021/04/07 03:21:22;;;;;;;4.9;3.35;;;;;;;-0.9;72.89844;94555.33;;;;
2021/04/07 03:22:23;;;;;;;4.9;3.35;;;;;;;-0.9;72.89844;94555.33;;;;
2021/04/07 03:23:23;;;;;;;4.5;3.5;;;;;;;-0.93;72.7373;94567.52;;;;
2021/04/07 03:24:24;;;;;;;4.5;3.5;;;;;;;-0.93;72.7373;94567.52;;;;
2021/04/07 03:25:25;;;;;;;4.5;3.5;;;;;;;-0.93;72.7373;94567.52;;;;
2021/04/07 03:26:25;;;;;;;4.5;3.5;;;;;;;-0.93;72.7373;94567.52;;;;
2021/04/07 03:27:26;;;;;;;4.5;3.5;;;;;;;-0.93;72.7373;94567.52;;;;
2021/04/07 03:28:27;;;;;;;4.5;3.5;;;;;;;-0.93;72.7373;94567.52;;;;
2021/04/07 03:29:27;;;;;;;4.5;3.5;;;;;;;-0.93;72.7373;94567.52;;;;
2021/04/07 03:30:28;;;;;;;4.5;3.5;;;;;;;-0.93;72.7373;94567.52;;;;
2021/04/07 03:31:29;;;;;;;4.5;3.5;;;;;;;-0.93;72.7373;94567.52;;;;
2021/04/07 03:32:29;;;;;;;4.5;3.5;;;;;;;-0.93;72.7373;94567.52;;;;
2021/04/07 03:33:31;;;;;;;4.5;3.5;;;;;;;-0.93;72.7373;94567.52;;;;
2021/04/07 03:34:32;;;;;;;4.299999;3.4;;;;;;;-1;72.92383;94586.49;;;;
2021/04/07 03:35:33;;;;;;;4.299999;3.4;;;;;;;-1;72.92383;94586.49;;;;
2021/04/07 03:36:33;;;;;;;4.299999;3.4;;;;;;;-1;72.92383;94586.49;;;;
2021/04/07 03:37:34;;;;;;;4.299999;3.4;;;;;;;-1;72.92383;94586.49;;;;
2021/04/07 03:38:35;;;;;;;4.299999;3.4;;;;;;;-1;72.92383;94586.49;;;;
2021/04/07 03:39:35;;;;;;;4.299999;3.4;;;;;;;-1;72.92383;94586.49;;;;
2021/04/07 03:40:36;;;;;;;4.299999;3.4;;;;;;;-1;72.92383;94586.49;;;;
2021/04/07 03:41:37;;;;;;;4.299999;3.4;;;;;;;-1;72.92383;94586.49;;;;
2021/04/07 03:42:37;;;;;;;4.299999;3.4;;;;;;;-1;72.92383;94586.49;;;;
2021/04/07 03:43:38;;;;;;;4.299999;3.4;;;;;;;-1;72.92383;94586.49;;;;
2021/04/07 03:44:38;;;;;;;4.15;3.25;;;;;;;-1;72.85059;94607.26;;;;
2021/04/07 03:45:39;;;;;;;4.15;3.25;;;;;;;-1;72.85059;94607.26;;;;
2021/04/07 03:46:41;;;;;;;4.15;3.25;;;;;;;-1;72.85059;94607.26;;;;
2021/04/07 03:47:42;;;;;;;4.15;3.25;;;;;;;-1;72.85059;94607.26;;;;
2021/04/07 03:48:42;;;;;;;4.15;3.25;;;;;;;-1;72.85059;94607.26;;;;
2021/04/07 03:49:43;;;;;;;4.15;3.25;;;;;;;-1;72.85059;94607.26;;;;
2021/04/07 03:50:44;;;;;;;4.15;3.25;;;;;;;-1;72.85059;94607.26;;;;
2021/04/07 03:51:46;;;;;;;4.15;3.25;;;;;;;-1;72.85059;94607.26;;;;
2021/04/07 03:52:47;;;;;;;4.15;3.25;;;;;;;-1;72.85059;94607.26;;;;
2021/04/07 03:53:48;;;;;;;4.15;3.25;;;;;;;-1;72.85059;94607.26;;;;
2021/04/07 03:54:56;;;;;;;4.15;3.25;;;;;;;-1;72.85059;94607.26;;;;
2021/04/07 03:55:56;;;;;;;4.400001;3.55;;;;;;;-1.06;72.81836;94610.63;;;;
2021/04/07 03:56:57;;;;;;;4.400001;3.55;;;;;;;-1.06;72.81836;94610.63;;;;
2021/04/07 03:57:57;;;;;;;4.400001;3.55;;;;;;;-1.06;72.81836;94610.63;;;;
2021/04/07 03:58:58;;;;;;;4.400001;3.55;;;;;;;-1.06;72.81836;94610.63;;;;
2021/04/07 03:59:59;;;;;;;4.400001;3.55;;;;;;;-1.06;72.81836;94610.63;;;;
2021/04/07 04:01:00;;;;;;;4.400001;3.55;;;;;;;-1.06;72.81836;94610.63;;;;
2021/04/07 04:02:00;;;;;;;4.400001;3.55;;;;;;;-1.06;72.81836;94610.63;;;;
2021/04/07 04:03:01;;;;;;;4.400001;3.55;;;;;;;-1.06;72.81836;94610.63;;;;
2021/04/07 04:04:02;;;;;;;4.400001;3.55;;;;;;;-1.06;72.81836;94610.63;;;;
2021/04/07 04:05:02;;;;;;;4.400001;3.55;;;;;;;-1.06;72.81836;94610.63;;;;
2021/04/07 04:06:04;;;;;;;4.5;3.65;;;;;;;-1.14;72.86816;94623.97;;;;
2021/04/07 04:07:04;;;;;;;4.5;3.65;;;;;;;-1.14;72.86816;94623.97;;;;
2021/04/07 04:08:05;;;;;;;4.5;3.65;;;;;;;-1.14;72.86816;94623.97;;;;
2021/04/07 04:09:07;;;;;;;4.5;3.65;;;;;;;-1.14;72.86816;94623.97;;;;
2021/04/07 04:10:07;;;;;;;4.5;3.65;;;;;;;-1.14;72.86816;94623.97;;;;
2021/04/07 04:11:09;;;;;;;4.5;3.65;;;;;;;-1.14;72.86816;94623.97;;;;
2021/04/07 04:12:09;;;;;;;4.5;3.65;;;;;;;-1.14;72.86816;94623.97;;;;
2021/04/07 04:13:10;;;;;;;4.5;3.65;;;;;;;-1.14;72.86816;94623.97;;;;
2021/04/07 04:14:10;;;;;;;4.5;3.65;;;;;;;-1.14;72.86816;94623.97;;;;
2021/04/07 04:15:11;;;;;;;4.5;3.65;;;;;;;-1.14;72.86816;94623.97;;;;
2021/04/07 04:16:13;;;;;;;4.5;3.65;;;;;;;-1.14;72.86816;94623.97;;;;
2021/04/07 04:17:14;;;;;;;4.100001;3.05;;;;;;;-1.12;72.92383;94644.06;;;;
2021/04/07 04:18:14;;;;;;;4.100001;3.05;;;;;;;-1.12;72.92383;94644.06;;;;
2021/04/07 04:19:15;;;;;;;4.100001;3.05;;;;;;;-1.12;72.92383;94644.06;;;;
2021/04/07 04:20:15;;;;;;;4.100001;3.05;;;;;;;-1.12;72.92383;94644.06;;;;
2021/04/07 04:21:16;;;;;;;4.100001;3.05;;;;;;;-1.12;72.92383;94644.06;;;;
2021/04/07 04:22:17;;;;;;;4.100001;3.05;;;;;;;-1.12;72.92383;94644.06;;;;
2021/04/07 04:23:18;;;;;;;4.100001;3.05;;;;;;;-1.12;72.92383;94644.06;;;;
2021/04/07 04:24:18;;;;;;;4.100001;3.05;;;;;;;-1.12;72.92383;94644.06;;;;
2021/04/07 04:25:19;;;;;;;4.100001;3.05;;;;;;;-1.12;72.92383;94644.06;;;;
2021/04/07 04:26:22;;;;;;;4.100001;3.05;;;;;;;-1.12;72.92383;94644.06;;;;
2021/04/07 04:27:22;;;;;;;3.9;3.45;;;;;;;-1.04;72.76953;94656.3;;;;
2021/04/07 04:28:23;;;;;;;3.9;3.45;;;;;;;-1.04;72.76953;94656.3;;;;
2021/04/07 04:29:24;;;;;;;3.9;3.45;;;;;;;-1.04;72.76953;94656.3;;;;
2021/04/07 04:30:24;;;;;;;3.9;3.45;;;;;;;-1.04;72.76953;94656.3;;;;
2021/04/07 04:31:26;;;;;;;3.9;3.45;;;;;;;-1.04;72.76953;94656.3;;;;
2021/04/07 04:32:27;;;;;;;3.9;3.45;;;;;;;-1.04;72.76953;94656.3;;;;
2021/04/07 04:33:27;;;;;;;3.9;3.45;;;;;;;-1.04;72.76953;94656.3;;;;
2021/04/07 04:34:28;;;;;;;3.9;3.45;;;;;;;-1.04;72.76953;94656.3;;;;
2021/04/07 04:35:28;;;;;;;3.9;3.45;;;;;;;-1.04;72.76953;94656.3;;;;
2021/04/07 04:36:29;;;;;;;3.9;3.45;;;;;;;-1.04;72.76953;94656.3;;;;
2021/04/07 04:37:29;;;;;;;3.9;3.45;;;;;;;-1.04;72.76953;94656.3;;;;
2021/04/07 04:38:30;;;;;;;4.75;3.3;;;;;;;-0.96;72.59668;94662.85;;;;
2021/04/07 04:39:30;;;;;;;4.75;3.3;;;;;;;-0.96;72.59668;94662.85;;;;
2021/04/07 04:40:31;;;;;;;4.75;3.3;;;;;;;-0.96;72.59668;94662.85;;;;
2021/04/07 04:41:31;;;;;;;4.75;3.3;;;;;;;-0.96;72.59668;94662.85;;;;
2021/04/07 04:42:32;;;;;;;4.75;3.3;;;;;;;-0.96;72.59668;94662.85;;;;
2021/04/07 04:43:32;;;;;;;4.75;3.3;;;;;;;-0.96;72.59668;94662.85;;;;
2021/04/07 04:44:33;;;;;;;4.75;3.3;;;;;;;-0.96;72.59668;94662.85;;;;
2021/04/07 04:45:35;;;;;;;4.75;3.3;;;;;;;-0.96;72.59668;94662.85;;;;
2021/04/07 04:46:36;;;;;;;4.75;3.3;;;;;;;-0.96;72.59668;94662.85;;;;
2021/04/07 04:47:36;;;;;;;4.75;3.3;;;;;;;-0.96;72.59668;94662.85;;;;
2021/04/07 04:48:37;;;;;;;5.150001;4;;;;;;;-0.93;72.41406;94692.95;;;;
2021/04/07 04:49:38;;;;;;;5.150001;4;;;;;;;-0.93;72.41406;94692.95;;;;
2021/04/07 04:50:38;;;;;;;5.150001;4;;;;;;;-0.93;72.41406;94692.95;;;;
2021/04/07 04:51:39;;;;;;;5.150001;4;;;;;;;-0.93;72.41406;94692.95;;;;
2021/04/07 04:52:40;;;;;;;5.150001;4;;;;;;;-0.93;72.41406;94692.95;;;;
2021/04/07 04:53:41;;;;;;;5.150001;4;;;;;;;-0.93;72.41406;94692.95;;;;
2021/04/07 04:54:41;;;;;;;5.150001;4;;;;;;;-0.93;72.41406;94692.95;;;;
2021/04/07 04:55:42;;;;;;;5.150001;4;;;;;;;-0.93;72.41406;94692.95;;;;
2021/04/07 04:56:42;;;;;;;5.150001;4;;;;;;;-0.93;72.41406;94692.95;;;;
2021/04/07 04:57:43;;;;;;;5.150001;4;;;;;;;-0.93;72.41406;94692.95;;;;
2021/04/07 04:58:43;;;;;;;5.150001;4;;;;;;;-0.93;72.41406;94692.95;;;;
2021/04/07 04:59:44;;;;;;;7.200001;4.25;;;;;;;-1.03;72.49121;94714;;;;
2021/04/07 05:00:44;;;;;;;7.200001;4.25;;;;;;;-1.03;72.49121;94714;;;;
2021/04/07 05:01:45;;;;;;;7.200001;4.25;;;;;;;-1.03;72.49121;94714;;;;
2021/04/07 05:02:45;;;;;;;7.200001;4.25;;;;;;;-1.03;72.49121;94714;;;;
2021/04/07 05:03:46;;;;;;;7.200001;4.25;;;;;;;-1.03;72.49121;94714;;;;
2021/04/07 05:04:46;;;;;;;7.200001;4.25;;;;;;;-1.03;72.49121;94714;;;;
2021/04/07 05:05:47;;;;;;;7.200001;4.25;;;;;;;-1.03;72.49121;94714;;;;
2021/04/07 05:06:47;;;;;;;7.200001;4.25;;;;;;;-1.03;72.49121;94714;;;;
2021/04/07 05:07:48;;;;;;;7.200001;4.25;;;;;;;-1.03;72.49121;94714;;;;
2021/04/07 05:08:48;;;;;;;7.200001;4.25;;;;;;;-1.03;72.49121;94714;;;;
2021/04/07 05:09:50;;;;;;;7.200001;4.25;;;;;;;-1.03;72.49121;94714;;;;
2021/04/07 05:10:50;;;;;;;6.35;4.900001;;;;;;;-1.01;72.74512;94716.89;;;;
2021/04/07 05:11:51;;;;;;;6.35;4.900001;;;;;;;-1.01;72.74512;94716.89;;;;
2021/04/07 05:12:51;;;;;;;6.35;4.900001;;;;;;;-1.01;72.74512;94716.89;;;;
2021/04/07 05:13:52;;;;;;;6.35;4.900001;;;;;;;-1.01;72.74512;94716.89;;;;
2021/04/07 05:14:52;;;;;;;6.35;4.900001;;;;;;;-1.01;72.74512;94716.89;;;;
2021/04/07 05:15:53;;;;;;;6.35;4.900001;;;;;;;-1.01;72.74512;94716.89;;;;
2021/04/07 05:16:53;;;;;;;6.35;4.900001;;;;;;;-1.01;72.74512;94716.89;;;;
2021/04/07 05:17:54;;;;;;;6.35;4.900001;;;;;;;-1.01;72.74512;94716.89;;;;
2021/04/07 05:18:54;;;;;;;6.35;4.900001;;;;;;;-1.01;72.74512;94716.89;;;;
2021/04/07 05:19:55;;;;;;;6.35;4.900001;;;;;;;-1.01;72.74512;94716.89;;;;
2021/04/07 05:20:56;;;;;;;5.199999;3.85;;;;;;;-1.01;72.71387;94735.42;;;;
2021/04/07 05:21:57;;;;;;;5.199999;3.85;;;;;;;-1.01;72.71387;94735.42;;;;
2021/04/07 05:22:58;;;;;;;5.199999;3.85;;;;;;;-1.01;72.71387;94735.42;;;;
2021/04/07 05:23:58;;;;;;;5.199999;3.85;;;;;;;-1.01;72.71387;94735.42;;;;
2021/04/07 05:24:59;;;;;;;5.199999;3.85;;;;;;;-1.01;72.71387;94735.42;;;;
2021/04/07 05:25:59;;;;;;;5.199999;3.85;;;;;;;-1.01;72.71387;94735.42;;;;
2021/04/07 05:27:00;;;;;;;5.199999;3.85;;;;;;;-1.01;72.71387;94735.42;;;;
2021/04/07 05:28:01;;;;;;;5.199999;3.85;;;;;;;-1.01;72.71387;94735.42;;;;
2021/04/07 05:29:02;;;;;;;5.199999;3.85;;;;;;;-1.01;72.71387;94735.42;;;;
2021/04/07 05:30:03;;;;;;;5.199999;3.85;;;;;;;-1.01;72.71387;94735.42;;;;
2021/04/07 05:31:05;;;;;;;5.199999;3.85;;;;;;;-1.01;72.71387;94735.42;;;;
2021/04/07 05:32:06;;;;;;;5.15;4.25;;;;;;;-0.87;72.9043;94752.26;;;;
2021/04/07 05:33:07;;;;;;;5.15;4.25;;;;;;;-0.87;72.9043;94752.26;;;;
2021/04/07 05:34:08;;;;;;;5.15;4.25;;;;;;;-0.87;72.9043;94752.26;;;;
2021/04/07 05:35:08;;;;;;;5.15;4.25;;;;;;;-0.87;72.9043;94752.26;;;;
2021/04/07 05:36:10;;;;;;;5.15;4.25;;;;;;;-0.87;72.9043;94752.26;;;;
2021/04/07 05:37:13;;;;;;;5.15;4.25;;;;;;;-0.87;72.9043;94752.26;;;;
2021/04/07 05:38:13;;;;;;;5.15;4.25;;;;;;;-0.87;72.9043;94752.26;;;;
2021/04/07 05:39:14;;;;;;;5.15;4.25;;;;;;;-0.87;72.9043;94752.26;;;;
2021/04/07 05:40:14;;;;;;;5.15;4.25;;;;;;;-0.87;72.9043;94752.26;;;;
2021/04/07 05:41:15;;;;;;;5.15;4.25;;;;;;;-0.87;72.9043;94752.26;;;;
2021/04/07 05:42:17;;;;;;;3.9;3.4;;;;;;;-0.47;72.9834;94776.23;;;;
2021/04/07 05:43:17;;;;;;;3.9;3.4;;;;;;;-0.47;72.9834;94776.23;;;;
2021/04/07 05:44:18;;;;;;;3.9;3.4;;;;;;;-0.47;72.9834;94776.23;;;;
2021/04/07 05:45:19;;;;;;;3.9;3.4;;;;;;;-0.47;72.9834;94776.23;;;;